createdAt,value
2023-01-17T00:02:08.648Z,63.43
2023-01-17T00:04:53.988Z,62.77
2023-01-17T00:07:40.807Z,63.25
2023-01-17T00:10:12.444Z,63.83
2023-01-17T00:12:40.309Z,63.13
2023-01-17T00:15:09.520Z,62.91
2023-01-17T00:17:37.292Z,63.02
2023-01-17T00:20:23.269Z,63.33
2023-01-17T00:23:08.602Z,63.08
2023-01-17T00:25:57.296Z,62.69
2023-01-17T00:28:24.597Z,62.23
2023-01-17T00:30:51.440Z,62.94
2023-01-17T00:33:18.419Z,62.70
2023-01-17T00:35:44.998Z,62.48
2023-01-17T00:38:13.627Z,62.34
2023-01-17T00:40:43.771Z,61.99
2023-01-17T00:43:30.707Z,61.88
2023-01-17T00:46:15.939Z,62.49
2023-01-17T00:49:01.719Z,61.69
2023-01-17T00:51:48.238Z,61.42
2023-01-17T00:54:34.171Z,61.50
2023-01-17T00:57:21.678Z,61.64
2023-01-17T01:00:07.216Z,61.56
2023-01-17T01:02:52.540Z,60.86
2023-01-17T01:05:37.943Z,61.10
2023-01-17T01:08:34.588Z,61.41
2023-01-17T01:11:22.767Z,61.11
2023-01-17T01:14:09.269Z,61.40
2023-01-17T01:16:56.629Z,61.48
2023-01-17T01:19:42.181Z,61.09
2023-01-17T01:22:27.357Z,61.61
2023-01-17T01:25:12.773Z,61.67
2023-01-17T01:27:58.203Z,61.02
2023-01-17T01:30:44.805Z,61.28
2023-01-17T01:33:19.494Z,60.73
2023-01-17T01:35:49.311Z,61.51
2023-01-17T01:38:17.452Z,61.05
2023-01-17T01:40:46.831Z,62.12
2023-01-17T01:43:16.131Z,61.67
2023-01-17T01:45:51.729Z,61.71
2023-01-17T01:48:35.263Z,62.17
2023-01-17T01:51:08.585Z,61.25
2023-01-17T01:53:41.823Z,61.83
2023-01-17T01:56:13.610Z,62.16
2023-01-17T01:58:42.631Z,62.04
2023-01-17T02:01:11.821Z,61.93
2023-01-17T02:03:41.952Z,62.49
2023-01-17T02:06:21.676Z,62.21
2023-01-17T02:08:50.049Z,61.81
2023-01-17T02:11:18.089Z,62.06
2023-01-17T02:13:46.072Z,61.75
2023-01-17T02:16:26.522Z,61.43
2023-01-17T02:19:04.111Z,61.91
2023-01-17T02:21:35.762Z,61.37
2023-01-17T02:24:42.515Z,61.80
2023-01-17T02:27:20.478Z,61.26
2023-01-17T02:30:14.736Z,61.20
2023-01-17T02:33:08.254Z,60.90
2023-01-17T02:35:43.938Z,62.00
2023-01-17T02:38:19.945Z,61.48
2023-01-17T02:40:53.704Z,61.99
2023-01-17T02:43:24.407Z,61.56
2023-01-17T02:45:52.219Z,61.26
2023-01-17T02:48:24.716Z,60.67
2023-01-17T02:51:11.751Z,60.90
2023-01-17T02:53:52.996Z,62.03
2023-01-17T02:56:35.330Z,61.78
2023-01-17T02:59:13.856Z,62.00
2023-01-17T03:01:54.627Z,62.04
2023-01-17T03:04:29.675Z,61.92
2023-01-17T03:07:01.929Z,61.96
2023-01-17T03:09:31.663Z,61.79
2023-01-17T03:12:00.299Z,62.08
2023-01-17T03:14:31.149Z,62.23
2023-01-17T03:16:59.048Z,61.92
2023-01-17T03:19:28.132Z,62.01
2023-01-17T03:21:55.832Z,61.89
2023-01-17T03:24:23.622Z,62.22
2023-01-17T03:26:51.278Z,61.70
2023-01-17T03:29:19.116Z,62.25
2023-01-17T03:31:46.922Z,62.19
2023-01-17T03:34:14.643Z,61.62
2023-01-17T03:36:43.654Z,62.20
2023-01-17T03:39:11.628Z,62.49
2023-01-17T03:41:39.360Z,61.77
2023-01-17T03:44:07.054Z,62.54
2023-01-17T03:46:34.817Z,62.50
2023-01-17T03:49:02.527Z,62.33
2023-01-17T03:51:30.189Z,62.19
2023-01-17T03:53:59.287Z,61.86
2023-01-17T03:56:27.043Z,61.75
2023-01-17T03:58:54.760Z,61.65
2023-01-17T04:01:22.517Z,61.58
2023-01-17T04:03:50.249Z,62.28
2023-01-17T04:06:17.965Z,61.39
2023-01-17T04:08:45.670Z,61.60
2023-01-17T04:11:14.695Z,61.79
2023-01-17T04:13:42.452Z,62.19
2023-01-17T04:16:14.684Z,62.04
2023-01-17T04:18:42.758Z,61.76
2023-01-17T04:21:10.469Z,61.57
2023-01-17T04:23:38.175Z,62.03
2023-01-17T04:26:06.211Z,61.56
2023-01-17T04:28:35.258Z,62.01
2023-01-17T04:31:02.974Z,61.27
2023-01-17T04:33:30.835Z,61.37
2023-01-17T04:35:58.783Z,61.70
2023-01-17T04:38:26.940Z,62.03
2023-01-17T04:40:54.694Z,62.04
2023-01-17T04:43:22.366Z,61.86
2023-01-17T04:45:55.762Z,61.77
2023-01-17T04:48:24.110Z,61.59
2023-01-17T04:50:51.905Z,61.42
2023-01-17T04:53:19.588Z,61.57
2023-01-17T04:55:47.853Z,61.40
2023-01-17T04:58:15.532Z,61.56
2023-01-17T05:00:43.224Z,61.68
2023-01-17T05:03:12.297Z,61.71
2023-01-17T05:05:39.963Z,61.61
2023-01-17T05:08:07.667Z,62.16
2023-01-17T05:10:35.349Z,61.33
2023-01-17T05:13:03.159Z,61.54
2023-01-17T05:15:31.075Z,61.27
2023-01-17T05:17:59.031Z,61.51
2023-01-17T05:20:28.114Z,61.61
2023-01-17T05:22:56.872Z,61.23
2023-01-17T05:25:25.441Z,61.47
2023-01-17T05:27:53.737Z,61.90
2023-01-17T05:30:22.498Z,61.20
2023-01-17T05:32:50.851Z,61.39
2023-01-17T05:35:19.648Z,62.04
2023-01-17T05:37:49.956Z,61.92
2023-01-17T05:40:17.993Z,61.90
2023-01-17T05:42:47.167Z,61.90
2023-01-17T05:45:16.876Z,61.77
2023-01-17T05:47:44.854Z,61.38
2023-01-17T05:50:13.491Z,61.84
2023-01-17T05:52:41.742Z,61.80
2023-01-17T05:55:11.205Z,61.80
2023-01-17T05:57:39.928Z,61.72
2023-01-17T06:00:09.830Z,61.71
2023-01-17T06:02:37.581Z,61.37
2023-01-17T06:05:06.112Z,61.57
2023-01-17T06:07:34.417Z,61.76
2023-01-17T06:10:02.287Z,61.88
2023-01-17T06:12:32.252Z,61.56
2023-01-17T06:15:00.074Z,62.07
2023-01-17T06:17:27.820Z,61.72
2023-01-17T06:19:55.530Z,61.57
2023-01-17T06:22:23.210Z,61.15
2023-01-17T06:24:51.081Z,61.52
2023-01-17T06:27:18.965Z,61.67
2023-01-17T06:29:48.065Z,60.77
2023-01-17T06:32:15.812Z,61.43
2023-01-17T06:34:43.510Z,61.53
2023-01-17T06:37:11.585Z,61.16
2023-01-17T06:39:39.296Z,61.40
2023-01-17T06:42:07.076Z,61.10
2023-01-17T06:44:35.263Z,61.56
2023-01-17T06:47:04.426Z,61.13
2023-01-17T06:49:32.215Z,61.37
2023-01-17T06:51:59.976Z,61.41
2023-01-17T06:54:28.102Z,60.99
2023-01-17T06:56:55.893Z,60.65
2023-01-17T06:59:23.653Z,61.10
2023-01-17T07:01:51.455Z,61.39
2023-01-17T07:04:20.737Z,61.10
2023-01-17T07:06:48.476Z,61.38
2023-01-17T07:09:16.269Z,60.95
2023-01-17T07:11:45.377Z,60.83
2023-01-17T07:14:14.688Z,61.20
2023-01-17T07:16:45.327Z,60.57
2023-01-17T07:19:13.843Z,60.55
2023-01-17T07:21:42.848Z,60.99
2023-01-17T07:24:10.967Z,61.06
2023-01-17T07:26:40.239Z,60.74
2023-01-17T07:29:08.177Z,61.01
2023-01-17T07:31:38.143Z,60.93
2023-01-17T07:34:05.842Z,60.10
2023-01-17T07:36:33.665Z,59.94
2023-01-17T07:39:04.308Z,59.13
2023-01-17T07:41:34.638Z,59.13
2023-01-17T07:44:02.348Z,58.76
2023-01-17T07:46:31.848Z,57.59
2023-01-17T07:48:59.536Z,58.11
2023-01-17T07:51:27.253Z,58.13
2023-01-17T07:53:54.964Z,57.77
2023-01-17T07:56:24.337Z,58.11
2023-01-17T07:58:52.015Z,59.06
2023-01-17T08:01:19.821Z,59.27
2023-01-17T08:03:47.594Z,59.34
2023-01-17T08:06:19.803Z,59.55
2023-01-17T08:08:47.873Z,59.54
2023-01-17T08:11:15.929Z,59.82
2023-01-17T08:13:44.970Z,59.75
2023-01-17T08:16:13.628Z,59.70
2023-01-17T08:18:41.521Z,59.56
2023-01-17T08:21:14.588Z,60.08
2023-01-17T08:23:42.297Z,59.93
2023-01-17T08:26:10.180Z,60.25
2023-01-17T08:28:37.916Z,59.96
2023-01-17T08:31:10.845Z,59.77
2023-01-17T08:33:38.615Z,60.60
2023-01-17T08:36:06.736Z,60.27
2023-01-17T08:38:34.460Z,59.89
2023-01-17T08:41:02.726Z,59.53
2023-01-17T08:43:30.419Z,60.62
2023-01-17T08:45:58.175Z,60.60
2023-01-17T08:48:27.333Z,60.34
2023-01-17T08:50:55.032Z,60.23
2023-01-17T08:53:23.403Z,60.61
2023-01-17T08:55:58.669Z,60.74
2023-01-17T08:58:29.750Z,60.58
2023-01-17T09:01:01.094Z,60.32
2023-01-17T09:03:30.240Z,60.26
2023-01-17T09:06:06.129Z,60.41
2023-01-17T09:08:34.419Z,60.19
2023-01-17T09:11:04.703Z,60.77
2023-01-17T09:13:32.522Z,60.53
2023-01-17T09:16:00.781Z,60.27
2023-01-17T09:18:31.250Z,60.06
2023-01-17T09:20:59.436Z,60.71
2023-01-17T09:23:28.688Z,60.26
2023-01-17T09:25:57.669Z,60.40
2023-01-17T09:28:26.484Z,60.13
2023-01-17T09:30:54.313Z,60.50
2023-01-17T09:33:23.194Z,60.44
2023-01-17T09:35:52.312Z,60.26
2023-01-17T09:38:21.747Z,60.61
2023-01-17T09:40:49.963Z,60.10
2023-01-17T09:43:25.023Z,60.21
2023-01-17T09:45:53.276Z,60.47
2023-01-17T09:48:29.265Z,60.83
2023-01-17T09:51:04.012Z,60.43
2023-01-17T09:53:35.251Z,60.66
2023-01-17T09:56:07.781Z,60.52
2023-01-17T09:58:42.583Z,60.68
2023-01-17T10:01:16.725Z,60.68
2023-01-17T10:04:12.564Z,60.70
2023-01-17T10:07:00.816Z,60.65
2023-01-17T10:09:58.934Z,60.67
2023-01-17T10:12:31.994Z,60.44
2023-01-17T10:15:18.104Z,60.87
2023-01-17T10:17:54.581Z,60.88
2023-01-17T10:20:46.204Z,61.44
2023-01-17T10:23:33.242Z,61.41
2023-01-17T10:26:04.187Z,60.97
2023-01-17T10:28:37.430Z,61.78
2023-01-17T10:31:09.125Z,61.85
2023-01-17T10:33:42.701Z,61.45
2023-01-17T10:36:16.758Z,61.61
2023-01-17T10:38:49.693Z,62.52
2023-01-17T10:41:23.435Z,62.42
2023-01-17T10:43:59.839Z,62.71
2023-01-17T10:46:35.161Z,62.00
2023-01-17T10:49:03.670Z,61.90
2023-01-17T10:51:59.960Z,60.29
2023-01-17T10:54:41.659Z,60.31
2023-01-17T10:57:15.965Z,59.09
2023-01-17T10:59:44.168Z,58.90
2023-01-17T11:02:21.253Z,58.52
2023-01-17T11:04:54.292Z,57.81
2023-01-17T11:07:23.885Z,57.73
2023-01-17T11:09:54.302Z,56.87
2023-01-17T11:12:27.565Z,56.66
2023-01-17T11:15:07.590Z,56.19
2023-01-17T11:17:37.770Z,55.63
2023-01-17T11:20:16.535Z,55.39
2023-01-17T11:23:02.623Z,55.33
2023-01-17T11:25:34.364Z,55.81
2023-01-17T11:28:05.541Z,56.87
2023-01-17T11:30:33.963Z,56.81
2023-01-17T11:33:06.069Z,57.46
2023-01-17T11:35:36.488Z,58.06
2023-01-17T11:38:12.638Z,57.45
2023-01-17T11:40:43.331Z,57.86
2023-01-17T11:43:23.433Z,58.81
2023-01-17T11:46:07.146Z,58.45
2023-01-17T11:48:37.836Z,58.83
2023-01-17T11:51:15.814Z,58.68
2023-01-17T11:53:48.122Z,59.30
2023-01-17T11:56:27.993Z,58.73
2023-01-17T11:59:25.104Z,58.92
2023-01-17T12:02:16.211Z,59.34
2023-01-17T12:04:48.278Z,58.17
2023-01-17T12:07:26.179Z,58.84
2023-01-17T12:10:02.087Z,58.42
2023-01-17T12:13:00.136Z,58.36
2023-01-17T12:15:35.111Z,58.33
2023-01-17T12:18:24.667Z,59.00
2023-01-17T12:21:03.304Z,58.07
2023-01-17T12:23:45.465Z,58.45
2023-01-17T12:26:27.600Z,58.01
2023-01-17T12:29:21.845Z,58.68
2023-01-17T12:32:01.902Z,58.17
2023-01-17T12:34:35.560Z,59.00
2023-01-17T12:37:14.049Z,58.09
2023-01-17T12:39:48.181Z,57.43
2023-01-17T12:42:21.265Z,56.99
2023-01-17T12:44:57.881Z,56.54
2023-01-17T12:47:26.515Z,55.32
2023-01-17T12:50:03.167Z,55.49
2023-01-17T12:52:42.499Z,54.71
2023-01-17T12:55:15.514Z,54.20
2023-01-17T12:57:47.274Z,53.69
2023-01-17T13:00:23.012Z,52.58
2023-01-17T13:02:55.150Z,52.48
2023-01-17T13:05:26.216Z,51.54
2023-01-17T13:08:03.021Z,51.77
2023-01-17T13:10:36.007Z,51.15
2023-01-17T13:13:14.214Z,51.07
2023-01-17T13:15:44.384Z,52.00
2023-01-17T13:18:16.051Z,51.61
2023-01-17T13:21:08.854Z,52.24
2023-01-17T13:23:55.875Z,52.61
2023-01-17T13:26:33.228Z,52.39
2023-01-17T13:29:10.270Z,52.38
2023-01-17T13:31:47.989Z,53.66
2023-01-17T13:34:41.437Z,53.91
2023-01-17T13:37:33.552Z,53.79
2023-01-17T13:40:19.549Z,53.84
2023-01-17T13:42:55.904Z,53.34
2023-01-17T13:45:27.059Z,52.79
2023-01-17T13:48:11.451Z,52.18
2023-01-17T13:50:52.991Z,51.93
2023-01-17T13:53:47.742Z,50.98
2023-01-17T13:56:24.272Z,50.82
2023-01-17T13:59:03.228Z,49.92
2023-01-17T14:01:50.732Z,50.62
2023-01-17T14:04:19.940Z,50.42
2023-01-17T14:06:50.120Z,51.49
2023-01-17T14:09:25.987Z,52.08
2023-01-17T14:12:00.769Z,51.29
2023-01-17T14:14:52.000Z,51.36
2023-01-17T14:17:59.616Z,52.45
2023-01-17T14:21:04.398Z,53.09
2023-01-17T14:23:52.086Z,52.83
2023-01-17T14:26:26.851Z,52.31
2023-01-17T14:28:56.255Z,52.37
2023-01-17T14:31:25.223Z,52.47
2023-01-17T14:33:54.174Z,52.09
2023-01-17T14:36:31.487Z,51.00
2023-01-17T14:38:59.231Z,50.45
2023-01-17T14:41:29.154Z,50.97
2023-01-17T14:43:58.399Z,49.91
2023-01-17T14:46:28.691Z,49.96
2023-01-17T14:49:02.180Z,49.21
2023-01-17T14:51:35.091Z,49.17
2023-01-17T14:54:05.482Z,49.49
2023-01-17T14:56:33.794Z,49.09
2023-01-17T14:59:16.987Z,49.83
2023-01-17T15:02:06.683Z,50.08
2023-01-17T15:04:39.456Z,51.49
2023-01-17T15:07:15.812Z,51.54
2023-01-17T15:09:45.150Z,52.38
2023-01-17T15:12:14.835Z,52.66
2023-01-17T15:14:45.557Z,52.33
2023-01-17T15:17:20.097Z,53.11
2023-01-17T15:19:53.139Z,52.69
2023-01-17T15:22:23.588Z,53.70
2023-01-17T15:24:51.870Z,54.08
2023-01-17T15:27:19.945Z,53.45
2023-01-17T15:29:48.342Z,54.49
2023-01-17T15:32:22.369Z,53.98
2023-01-17T15:34:52.287Z,54.07
2023-01-17T15:37:30.101Z,53.77
2023-01-17T15:40:07.610Z,54.28
2023-01-17T15:42:39.819Z,54.39
2023-01-17T15:45:15.522Z,54.53
2023-01-17T15:47:43.458Z,54.46
2023-01-17T15:50:30.203Z,53.73
2023-01-17T15:53:01.888Z,53.45
2023-01-17T15:55:32.495Z,52.96
2023-01-17T15:58:00.754Z,52.26
2023-01-17T16:00:37.680Z,51.82
2023-01-17T16:03:20.869Z,51.37
2023-01-17T16:05:49.897Z,51.71
2023-01-17T16:08:33.975Z,51.48
2023-01-17T16:11:03.707Z,52.20
2023-01-17T16:13:33.032Z,52.50
2023-01-17T16:16:15.136Z,53.74
2023-01-17T16:18:43.485Z,53.52
2023-01-17T16:21:19.780Z,54.07
2023-01-17T16:23:48.859Z,55.25
2023-01-17T16:26:16.850Z,55.77
2023-01-17T16:28:44.765Z,55.05
2023-01-17T16:31:12.850Z,55.42
2023-01-17T16:33:42.057Z,55.74
2023-01-17T16:36:14.714Z,55.40
2023-01-17T16:38:42.568Z,55.32
2023-01-17T16:41:11.774Z,55.59
2023-01-17T16:43:39.491Z,55.78
2023-01-17T16:46:07.519Z,55.63
2023-01-17T16:48:35.218Z,56.37
2023-01-17T16:51:06.777Z,55.72
2023-01-17T16:53:34.707Z,55.77
2023-01-17T16:56:10.210Z,56.41
2023-01-17T16:58:39.372Z,55.95
2023-01-17T17:01:10.227Z,56.43
2023-01-17T17:03:38.397Z,56.05
2023-01-17T17:06:06.430Z,55.59
2023-01-17T17:08:35.527Z,55.07
2023-01-17T17:11:14.913Z,55.18
2023-01-17T17:13:45.662Z,54.21
2023-01-17T17:16:15.901Z,53.47
2023-01-17T17:18:44.096Z,52.55
2023-01-17T17:21:11.960Z,52.86
2023-01-17T17:23:39.747Z,52.21
2023-01-17T17:26:07.607Z,52.52
2023-01-17T17:28:35.755Z,52.59
2023-01-17T17:31:10.379Z,53.14
2023-01-17T17:33:38.743Z,53.76
2023-01-17T17:36:10.182Z,54.25
2023-01-17T17:38:50.695Z,54.32
2023-01-17T17:41:20.659Z,54.92
2023-01-17T17:43:48.821Z,54.63
2023-01-17T17:46:18.446Z,55.27
2023-01-17T17:48:46.182Z,54.65
2023-01-17T17:51:23.598Z,55.12
2023-01-17T17:53:52.677Z,55.36
2023-01-17T17:56:20.593Z,55.04
2023-01-17T17:58:48.874Z,55.89
2023-01-17T18:01:18.156Z,55.18
2023-01-17T18:03:46.128Z,55.10
2023-01-17T18:06:15.897Z,55.47
2023-01-17T18:08:43.709Z,54.87
2023-01-17T18:11:14.883Z,54.96
2023-01-17T18:13:43.415Z,55.27
2023-01-17T18:16:12.798Z,55.46
2023-01-17T18:18:44.794Z,54.81
2023-01-17T18:21:14.480Z,54.62
2023-01-17T18:23:45.566Z,54.03
2023-01-17T18:26:18.516Z,53.66
2023-01-17T18:28:46.493Z,52.85
2023-01-17T18:31:14.370Z,52.72
2023-01-17T18:33:43.481Z,52.72
2023-01-17T18:36:12.866Z,52.42
2023-01-17T18:38:42.398Z,52.91
2023-01-17T18:41:12.722Z,53.72
2023-01-17T18:43:40.965Z,53.71
2023-01-17T18:46:09.869Z,54.18
2023-01-17T18:48:38.516Z,54.24
2023-01-17T18:51:09.126Z,54.96
2023-01-17T18:53:38.486Z,54.10
2023-01-17T18:56:08.514Z,54.82
2023-01-17T18:58:38.795Z,54.89
2023-01-17T19:01:08.676Z,54.33
2023-01-17T19:03:36.544Z,55.29
2023-01-17T19:06:06.017Z,55.21
2023-01-17T19:08:36.295Z,54.85
2023-01-17T19:11:04.551Z,55.33
2023-01-17T19:13:32.727Z,55.03
2023-01-17T19:16:01.990Z,55.29
2023-01-17T19:18:30.186Z,54.93
2023-01-17T19:21:03.833Z,55.14
2023-01-17T19:23:31.560Z,54.83
2023-01-17T19:26:00.611Z,54.68
2023-01-17T19:28:29.088Z,53.99
2023-01-17T19:31:03.999Z,53.32
2023-01-17T19:33:31.815Z,53.32
2023-01-17T19:36:00.770Z,52.97
2023-01-17T19:38:28.739Z,53.30
2023-01-17T19:40:56.515Z,53.58
2023-01-17T19:43:25.691Z,53.97
2023-01-17T19:45:58.534Z,54.29
2023-01-17T19:48:26.808Z,53.75
2023-01-17T19:50:55.562Z,53.82
2023-01-17T19:53:23.642Z,53.56
2023-01-17T19:55:51.418Z,54.01
2023-01-17T19:58:19.190Z,54.07
2023-01-17T20:00:48.319Z,54.28
2023-01-17T20:03:16.090Z,53.80
2023-01-17T20:05:46.033Z,54.88
2023-01-17T20:08:14.227Z,54.74
2023-01-17T20:10:41.912Z,54.43
2023-01-17T20:13:09.618Z,54.78
2023-01-17T20:15:37.318Z,55.37
2023-01-17T20:18:06.591Z,55.48
2023-01-17T20:20:34.448Z,54.87
2023-01-17T20:23:05.523Z,55.03
2023-01-17T20:25:33.259Z,54.62
2023-01-17T20:28:01.304Z,54.96
2023-01-17T20:30:31.810Z,54.78
2023-01-17T20:32:59.893Z,54.82
2023-01-17T20:35:29.694Z,55.05
2023-01-17T20:37:57.751Z,54.82
2023-01-17T20:40:25.667Z,55.21
2023-01-17T20:42:53.444Z,54.98
2023-01-17T20:45:21.157Z,55.28
2023-01-17T20:47:49.610Z,55.16
2023-01-17T20:50:17.515Z,54.90
2023-01-17T20:52:48.145Z,54.82
2023-01-17T20:55:15.960Z,55.04
2023-01-17T20:57:43.696Z,55.26
2023-01-17T21:00:12.830Z,54.85
2023-01-17T21:02:40.589Z,55.24
2023-01-17T21:05:12.746Z,54.72
2023-01-17T21:07:40.446Z,55.36
2023-01-17T21:10:10.558Z,55.17
2023-01-17T21:12:38.337Z,55.57
2023-01-17T21:15:07.009Z,55.11
2023-01-17T21:17:35.934Z,55.45
2023-01-17T21:20:08.010Z,54.92
2023-01-17T21:22:35.729Z,55.54
2023-01-17T21:25:03.416Z,55.02
2023-01-17T21:27:32.483Z,55.48
2023-01-17T21:30:00.201Z,55.12
2023-01-17T21:32:29.081Z,55.51
2023-01-17T21:34:56.754Z,55.23
2023-01-17T21:37:24.483Z,55.10
2023-01-17T21:39:54.863Z,55.79
2023-01-17T21:42:22.558Z,55.62
2023-01-17T21:44:52.037Z,54.95
2023-01-17T21:47:20.023Z,55.13
2023-01-17T21:49:47.713Z,55.00
2023-01-17T21:52:21.331Z,54.93
2023-01-17T21:55:06.285Z,55.15
2023-01-17T21:57:51.622Z,55.42
2023-01-17T22:00:21.029Z,55.14
2023-01-17T22:02:49.496Z,55.04
2023-01-17T22:05:18.525Z,55.12
2023-01-17T22:08:00.257Z,55.40
2023-01-17T22:10:27.978Z,55.54
2023-01-17T22:12:55.746Z,55.30
2023-01-17T22:15:24.878Z,55.13
2023-01-17T22:17:52.591Z,55.53
2023-01-17T22:20:21.393Z,55.51
2023-01-17T22:22:49.128Z,55.56
2023-01-17T22:25:16.996Z,55.51
2023-01-17T22:27:44.695Z,55.35
2023-01-17T22:30:13.886Z,55.26
2023-01-17T22:32:42.983Z,55.21
2023-01-17T22:35:10.840Z,55.42
2023-01-17T22:37:38.541Z,55.40
2023-01-17T22:40:07.570Z,55.30
2023-01-17T22:42:35.475Z,55.31
2023-01-17T22:45:03.270Z,55.37
2023-01-17T22:47:30.931Z,55.50
2023-01-17T22:49:59.978Z,55.24
2023-01-17T22:52:27.677Z,55.02
2023-01-17T22:54:55.460Z,55.18
2023-01-17T22:57:23.468Z,55.37
2023-01-17T22:59:51.425Z,55.00
2023-01-17T23:02:19.286Z,55.59
2023-01-17T23:04:47.548Z,55.87
2023-01-17T23:07:16.915Z,55.28
2023-01-17T23:09:45.679Z,55.12
2023-01-17T23:12:13.414Z,55.44
2023-01-17T23:14:58.608Z,55.26
2023-01-17T23:17:43.870Z,55.43
2023-01-17T23:20:12.557Z,55.31
2023-01-17T23:22:41.590Z,55.16
2023-01-17T23:25:12.226Z,55.13
2023-01-17T23:27:59.741Z,55.08
2023-01-17T23:30:29.034Z,55.02
2023-01-17T23:32:58.909Z,54.94
2023-01-17T23:35:29.107Z,55.25
2023-01-17T23:38:16.101Z,55.23
2023-01-17T23:41:04.728Z,55.22
2023-01-17T23:43:31.704Z,55.08
2023-01-17T23:45:59.585Z,55.39
2023-01-17T23:48:28.110Z,55.12
2023-01-17T23:50:59.118Z,55.34
2023-01-17T23:53:28.991Z,55.36
2023-01-17T23:55:59.527Z,55.64
2023-01-17T23:58:28.721Z,55.52
